Weather at Batam Police Heliport

Public forecast

Using degrees Celsius for public forecast. Weather courtesy of forecast.io.

Closest aviation weather report (METAR) to Batam Police Heliport

Closest report is Hang Nadim International Airport, 2.4 nm (4.5 km) S.

2024/05/22 07:30 (retrieved 26 minutes ago)

WIDD 220730Z 00000KT 8000 -TSRA FEW013CB SCT013 26/25 Q1009 BECMG FM0900 NSW SCT013 RMK CB TO SE

Closest aviation forecast (TAF) to Batam Police Heliport

Closest forecast is Hang Nadim International Airport, 2.4 nm (4.5 km) S.

2024/05/22 06:00 (retrieved 2 hours ago)

TAF WIDD 220500Z 2206/2306 VRB08KT 9999 SCT014 TEMPO 2206/2210 3000 TSRA FEW013CB BKN014